Time;durP1;ratioP1;P1;durP2;ratioP2;P2;SDS_P1;SDS_P2;PMS_P1;PMS_P2;Temp;Humidity;BMP_temperature;BMP_pressure;BME280_temperature;BME280_humidity;BME280_pressure;Samples;Min_cycle;Max_cycle;Signal;HPM_P1;HPM_P2
2021/11/04 00:01:49;;;;;;;73.37;36.35;;;;;;;1.14;100.00;100533.06;1735286;80;21072;-72
2021/11/04 00:04:15;;;;;;;50.83;28.67;;;;;;;1.19;100.00;100532.67;1748824;81;21136;-70
2021/11/04 00:06:42;;;;;;;62.43;34.83;;;;;;;1.20;100.00;100528.37;1755867;81;21093;-69
2021/11/04 00:09:09;;;;;;;64.30;35.03;;;;;;;1.26;100.00;100533.58;1755689;81;21061;-71
2021/11/04 00:11:37;;;;;;;44.23;23.10;;;;;;;1.33;100.00;100538.39;1755740;81;21549;-68
2021/11/04 00:14:04;;;;;;;71.85;36.73;;;;;;;1.36;100.00;100532.81;1755844;81;21053;-70
2021/11/04 00:16:30;;;;;;;53.63;27.98;;;;;;;1.35;100.00;100532.79;1756020;81;21117;-70
2021/11/04 00:18:59;;;;;;;45.08;26.45;;;;;;;1.35;100.00;100540.14;1755961;81;21027;-70
2021/11/04 00:21:27;;;;;;;59.40;33.73;;;;;;;1.36;100.00;100541.89;1755890;81;21013;-70
2021/11/04 00:23:54;;;;;;;38.75;20.32;;;;;;;1.38;100.00;100546.67;1755685;81;21112;-71
2021/11/04 00:26:20;;;;;;;66.97;33.50;;;;;;;1.43;100.00;100539.77;1755755;81;21116;-71
2021/11/04 00:28:46;;;;;;;57.62;31.12;;;;;;;1.56;100.00;100542.44;1756091;81;21069;-71
2021/11/04 00:31:13;;;;;;;58.50;32.10;;;;;;;1.63;100.00;100542.91;1755744;81;21098;-71
2021/11/04 00:33:39;;;;;;;58.75;31.73;;;;;;;1.63;100.00;100542.91;1756047;81;21061;-70
2021/11/04 00:36:06;;;;;;;45.12;24.47;;;;;;;1.61;100.00;100542.03;1755849;81;21097;-71
2021/11/04 00:38:33;;;;;;;62.48;31.10;;;;;;;1.58;100.00;100541.59;1755754;81;21053;-71
2021/11/04 00:41:00;;;;;;;66.22;34.95;;;;;;;1.61;100.00;100542.03;1754127;81;21151;-72
2021/11/04 00:43:26;;;;;;;56.58;30.25;;;;;;;1.62;100.00;100543.78;1747449;82;20999;-71
2021/11/04 00:45:53;;;;;;;57.90;31.52;;;;;;;1.64;100.00;100540.77;1747538;81;21663;-71
2021/11/04 00:48:19;;;;;;;56.00;26.82;;;;;;;1.66;100.00;100539.06;1748531;82;21006;-72
2021/11/04 00:50:46;;;;;;;46.02;25.88;;;;;;;1.68;100.00;100538.64;1748267;82;21057;-71
2021/11/04 00:53:12;;;;;;;61.42;29.55;;;;;;;1.76;100.00;100538.23;1748193;82;21510;-71
2021/11/04 00:55:39;;;;;;;48.13;27.85;;;;;;;1.82;100.00;100538.28;1748035;82;21642;-71
2021/11/04 00:58:06;;;;;;;61.90;32.90;;;;;;;1.85;100.00;100543.48;1748175;82;21536;-70
2021/11/04 01:00:32;;;;;;;54.00;31.52;;;;;;;2.01;100.00;100551.35;1741517;82;21025;-71
2021/11/04 01:02:58;;;;;;;48.73;27.40;;;;;;;2.31;100.00;100538.47;1718232;83;21041;-71
2021/11/04 01:05:25;;;;;;;57.35;31.45;;;;;;;2.31;100.00;100538.47;1718304;83;21091;-73
2021/11/04 01:07:51;;;;;;;49.70;27.22;;;;;;;2.41;100.00;100548.89;1718287;82;21053;-69
2021/11/04 01:10:19;;;;;;;54.45;31.37;;;;;;;2.52;100.00;100542.00;1718003;83;21600;-70
2021/11/04 01:12:50;;;;;;;59.45;31.25;;;;;;;2.67;100.00;100547.24;1718430;83;21084;-71
2021/11/04 01:15:15;;;;;;;55.67;31.73;;;;;;;2.89;100.00;100545.52;1717854;83;21041;-71
2021/11/04 01:17:42;;;;;;;60.70;35.43;;;;;;;3.13;100.00;100551.63;1743147;82;21141;-72
2021/11/04 01:20:10;;;;;;;54.45;30.97;;;;;;;3.31;100.00;100553.33;1747875;82;21057;-72
2021/11/04 01:22:37;;;;;;;48.25;28.00;;;;;;;3.46;100.00;100553.33;1748244;82;21080;-71
2021/11/04 01:25:05;;;;;;;57.43;34.23;;;;;;;3.56;100.00;100553.73;1747893;82;21045;-69
2021/11/04 01:27:33;;;;;;;52.60;29.10;;;;;;;3.62;100.00;100550.72;1747777;82;21576;-68
2021/11/04 01:30:01;;;;;;;58.85;34.55;;;;;;;3.64;100.00;100548.98;1727444;82;22153;-68
2021/11/04 01:32:28;;;;;;;55.60;30.77;;;;;;;3.73;100.00;100548.95;1718084;83;21449;-69
2021/11/04 01:34:54;;;;;;;52.08;31.27;;;;;;;3.79;100.00;100552.39;1739197;82;21105;-70
2021/11/04 01:37:20;;;;;;;59.40;33.70;;;;;;;3.88;100.00;100548.89;1747713;82;21468;-69
2021/11/04 01:39:47;;;;;;;53.68;32.30;;;;;;;4.01;100.00;100558.00;1747961;82;21057;-70
2021/11/04 01:42:13;;;;;;;54.98;31.80;;;;;;;4.11;100.00;100553.17;1747660;82;21207;-71
2021/11/04 01:44:40;;;;;;;57.15;30.97;;;;;;;4.20;100.00;100555.73;1747728;82;21606;-70
2021/11/04 01:47:09;;;;;;;47.90;29.27;;;;;;;4.23;100.00;100559.63;1747679;81;21041;-70
2021/11/04 01:49:39;;;;;;;53.68;32.98;;;;;;;4.24;100.00;100552.25;1747740;82;21038;-69
2021/11/04 01:52:06;;;;;;;49.38;27.93;;;;;;;4.28;100.00;100551.38;1747606;82;21030;-71
2021/11/04 01:54:32;;;;;;;58.33;32.40;;;;;;;4.30;100.00;100562.66;1720356;82;21816;-71
2021/11/04 01:56:59;;;;;;;60.55;35.05;;;;;;;4.33;100.00;100559.17;1747599;82;21515;-71
2021/11/04 01:59:25;;;;;;;46.55;27.60;;;;;;;4.34;100.00;100576.09;1747720;82;21040;-71
2021/11/04 02:02:00;;;;;;;56.92;33.98;;;;;;;4.32;100.00;100573.06;1748101;82;21540;-70
2021/11/04 02:04:38;;;;;;;58.45;32.03;;;;;;;4.30;100.00;100566.58;1732428;82;21021;-69
2021/11/04 02:07:15;;;;;;;49.35;29.15;;;;;;;4.34;100.00;100572.18;1705868;83;21204;-69
2021/11/04 02:09:53;;;;;;;57.55;32.33;;;;;;;4.34;100.00;100577.40;1717965;83;22192;-71
2021/11/04 02:12:36;;;;;;;58.87;34.55;;;;;;;4.37;100.00;100577.41;1717562;83;21033;-71
2021/11/04 02:15:03;;;;;;;44.08;27.35;;;;;;;4.36;100.00;100578.26;1717803;83;21084;-70
2021/11/04 02:17:31;;;;;;;54.45;32.28;;;;;;;4.33;100.00;100580.89;1717596;83;21083;-71
2021/11/04 02:20:00;;;;;;;46.90;26.90;;;;;;;4.32;100.00;100586.97;1718197;83;21116;-70
2021/11/04 02:22:53;;;;;;;58.75;34.53;;;;;;;4.29;100.00;100588.29;1717811;83;21148;-71
2021/11/04 02:25:29;;;;;;;58.95;33.98;;;;;;;4.28;100.00;100591.78;1724272;82;21110;-71
2021/11/04 02:28:02;;;;;;;61.70;34.78;;;;;;;4.29;100.00;100594.81;1717967;83;21079;-69
2021/11/04 02:30:29;;;;;;;62.43;36.95;;;;;;;4.32;100.00;100596.09;1718075;83;21082;-70
2021/11/04 02:32:56;;;;;;;59.80;36.13;;;;;;;4.38;100.00;100597.38;1717973;83;21154;-70
2021/11/04 02:35:22;;;;;;;54.53;30.35;;;;;;;4.39;100.00;100596.52;1718136;83;21150;-71
2021/11/04 02:37:51;;;;;;;57.80;35.08;;;;;;;4.38;100.00;100599.98;1717717;83;21102;-70
2021/11/04 02:40:17;;;;;;;53.75;32.85;;;;;;;4.41;100.00;100594.75;1717719;83;21133;-70
2021/11/04 02:42:44;;;;;;;53.33;30.60;;;;;;;4.37;100.00;100593.05;1717975;83;21130;-70
2021/11/04 02:45:13;;;;;;;48.63;30.05;;;;;;;4.45;100.00;100611.70;1717889;83;21146;-71
2021/11/04 02:47:40;;;;;;;46.50;27.13;;;;;;;4.48;100.00;100615.59;1723900;83;21557;-70
2021/11/04 02:50:09;;;;;;;44.73;27.85;;;;;;;4.50;100.00;100613.85;1725655;83;21093;-70
2021/11/04 02:52:36;;;;;;;39.70;25.70;;;;;;;4.53;100.00;100624.26;1725358;83;21679;-70
2021/11/04 02:55:04;;;;;;;33.80;20.52;;;;;;;4.50;100.00;100626.89;1725631;83;21081;-70
2021/11/04 02:57:32;;;;;;;38.83;24.55;;;;;;;4.45;100.00;100631.27;1725257;83;21126;-71
2021/11/04 02:59:58;;;;;;;36.58;22.35;;;;;;;4.43;100.00;100642.14;1725429;83;21047;-72
2021/11/04 03:02:25;;;;;;;38.25;24.40;;;;;;;4.35;100.00;100645.64;1725058;83;22247;-70
2021/11/04 03:04:52;;;;;;;39.63;24.18;;;;;;;4.31;100.00;100652.17;1725431;83;21060;-71
2021/11/04 03:07:18;;;;;;;31.85;19.92;;;;;;;4.29;100.00;100653.48;1725203;83;21123;-69
2021/11/04 03:09:45;;;;;;;36.90;23.05;;;;;;;4.25;100.00;100654.34;1725844;83;21105;-69
2021/11/04 03:12:12;;;;;;;31.20;16.27;;;;;;;4.22;100.00;100662.19;1725274;83;21100;-69
2021/11/04 03:14:41;;;;;;;34.30;21.93;;;;;;;4.21;100.00;100660.47;1725559;83;21073;-69
2021/11/04 03:17:08;;;;;;;35.85;22.05;;;;;;;4.19;100.00;100664.37;1725159;83;21556;-69
2021/11/04 03:19:35;;;;;;;31.75;19.95;;;;;;;4.15;100.00;100659.17;1730213;81;21060;-71
2021/11/04 03:22:03;;;;;;;31.62;20.27;;;;;;;4.10;100.00;100658.31;1755429;81;21093;-69
2021/11/04 03:24:29;;;;;;;35.80;23.30;;;;;;;4.02;100.00;100662.22;1755403;81;21556;-70
2021/11/04 03:27:02;;;;;;;34.43;21.77;;;;;;;3.99;100.00;100672.22;1754917;81;21057;-70
2021/11/04 03:29:32;;;;;;;37.65;21.90;;;;;;;3.95;100.00;100670.48;1755745;81;21141;-69
2021/11/04 03:32:02;;;;;;;34.70;20.85;;;;;;;3.94;100.00;100676.58;1754304;81;21111;-70
2021/11/04 03:34:29;;;;;;;32.60;21.50;;;;;;;3.90;100.00;100679.19;1725458;83;21106;-69
2021/11/04 03:36:55;;;;;;;28.98;20.10;;;;;;;3.87;100.00;100687.87;1725169;83;21173;-68
2021/11/04 03:39:22;;;;;;;31.12;19.23;;;;;;;3.83;100.00;100687.88;1725366;83;21096;-68
2021/11/04 03:41:51;;;;;;;45.58;26.20;;;;;;;3.76;100.00;100694.83;1725182;83;21761;-68
2021/11/04 03:44:20;;;;;;;71.47;35.83;;;;;;;3.74;100.00;100686.14;1725486;83;21649;-68
2021/11/04 03:46:48;;;;;;;70.67;37.08;;;;;;;3.69;100.00;100689.19;1718006;83;21854;-69
2021/11/04 03:49:17;;;;;;;70.40;36.75;;;;;;;3.63;100.00;100677.45;1704409;84;21018;-69
2021/11/04 03:51:44;;;;;;;62.83;35.13;;;;;;;3.57;100.00;100673.98;1704310;84;21038;-70
2021/11/04 03:54:11;;;;;;;60.83;32.17;;;;;;;3.52;100.00;100680.05;1704287;84;21045;-69
2021/11/04 03:56:40;;;;;;;45.80;28.07;;;;;;;3.44;100.00;100679.19;1704073;83;21559;-68
2021/11/04 03:59:06;;;;;;;44.33;24.87;;;;;;;3.38;100.00;100676.12;1723003;82;21143;-70
2021/11/04 04:01:34;;;;;;;37.98;23.05;;;;;;;3.36;100.00;100676.59;1713345;82;21105;-68
2021/11/04 04:04:03;;;;;;;28.07;18.10;;;;;;;3.34;100.00;100679.17;1728858;82;21106;-68
2021/11/04 04:06:30;;;;;;;32.80;19.90;;;;;;;3.30;100.00;100675.27;1719363;83;21131;-69
2021/11/04 04:08:58;;;;;;;32.70;19.20;;;;;;;3.25;100.00;100675.70;1719286;82;21110;-68
2021/11/04 04:11:24;;;;;;;24.23;17.00;;;;;;;3.20;100.00;100669.59;1687480;82;21134;-70
2021/11/04 04:13:55;;;;;;;23.80;15.18;;;;;;;3.14;100.00;100670.02;1732242;82;21569;-69
2021/11/04 04:16:22;;;;;;;23.15;15.70;;;;;;;3.12;100.00;100665.24;1668840;86;21070;-69
2021/11/04 04:18:50;;;;;;;24.07;15.03;;;;;;;3.06;100.00;100656.14;1669018;85;21110;-71
2021/11/04 04:21:17;;;;;;;19.75;13.58;;;;;;;3.00;100.00;100653.52;1668775;86;21597;-71
2021/11/04 04:23:44;;;;;;;18.32;12.18;;;;;;;3.00;100.00;100647.02;1668786;86;21181;-70
2021/11/04 04:26:10;;;;;;;17.25;11.15;;;;;;;2.97;100.00;100655.23;1668974;86;21075;-72
2021/11/04 04:28:37;;;;;;;17.27;11.28;;;;;;;2.93;100.00;100653.08;1668700;86;21118;-71
2021/11/04 04:31:04;;;;;;;14.75;10.40;;;;;;;2.91;100.00;100657.40;1668826;85;21059;-70
2021/11/04 04:33:30;;;;;;;16.62;10.90;;;;;;;2.88;100.00;100658.70;1668922;86;21095;-71
2021/11/04 04:35:58;;;;;;;18.62;10.88;;;;;;;2.88;100.00;100663.91;1668869;86;21063;-69
2021/11/04 04:38:25;;;;;;;19.45;11.35;;;;;;;2.87;100.00;100656.51;1668910;85;21078;-69
2021/11/04 04:40:52;;;;;;;19.92;11.75;;;;;;;2.87;100.00;100652.61;1732351;82;21109;-68
2021/11/04 04:43:18;;;;;;;14.38;9.63;;;;;;;2.94;100.00;100660.89;1732252;82;21078;-71
2021/11/04 04:45:45;;;;;;;20.27;12.37;;;;;;;2.99;100.00;100668.71;1732385;82;21042;-69
2021/11/04 04:48:12;;;;;;;18.35;10.88;;;;;;;3.03;100.00;100662.62;1731907;82;22373;-71
2021/11/04 04:50:39;;;;;;;16.62;11.22;;;;;;;3.09;100.00;100653.54;1732102;82;21126;-70
2021/11/04 04:53:07;;;;;;;20.02;11.33;;;;;;;3.13;100.00;100655.29;1732441;82;21564;-68
2021/11/04 04:55:34;;;;;;;13.58;9.48;;;;;;;3.18;100.00;100656.59;1732332;82;21083;-70
2021/11/04 04:58:00;;;;;;;22.50;12.43;;;;;;;3.18;100.00;100648.80;1732009;82;21059;-69
2021/11/04 05:00:27;;;;;;;19.85;12.23;;;;;;;3.24;100.00;100650.52;1732064;82;21134;-68
2021/11/04 05:02:53;;;;;;;20.25;12.30;;;;;;;3.27;100.00;100650.55;1669172;85;21074;-69
2021/11/04 05:05:20;;;;;;;17.20;11.38;;;;;;;3.29;100.00;100656.19;1668028;85;21563;-70
2021/11/04 05:07:46;;;;;;;15.50;9.40;;;;;;;3.35;100.00;100656.61;1665866;86;21101;-71
2021/11/04 05:10:15;;;;;;;22.17;13.80;;;;;;;3.37;100.00;100656.18;1665936;86;21081;-69
2021/11/04 05:12:42;;;;;;;23.12;14.68;;;;;;;3.45;100.00;100643.16;1665777;86;21164;-70
2021/11/04 05:15:10;;;;;;;26.23;15.90;;;;;;;3.47;100.00;100637.52;1666072;86;21086;-71
2021/11/04 05:17:38;;;;;;;30.55;18.07;;;;;;;3.51;100.00;100634.91;1665784;86;21101;-69
2021/11/04 05:20:07;;;;;;;31.50;17.30;;;;;;;3.57;100.00;100632.32;1666110;86;21121;-71
2021/11/04 05:22:34;;;;;;;32.58;16.57;;;;;;;3.60;100.00;100635.80;1665907;86;21156;-69
2021/11/04 05:25:00;;;;;;;27.80;17.25;;;;;;;3.61;100.00;100640.13;1666210;86;21029;-70
2021/11/04 05:27:28;;;;;;;35.33;17.20;;;;;;;3.63;100.00;100638.39;1665567;86;21168;-71
2021/11/04 05:29:55;;;;;;;32.78;16.15;;;;;;;3.60;100.00;100630.59;1665665;86;21715;-68
2021/11/04 05:32:23;;;;;;;25.80;15.38;;;;;;;3.56;100.00;100628.40;1665231;86;21181;-69
2021/11/04 05:34:50;;;;;;;23.10;13.58;;;;;;;3.54;100.00;100623.22;1671115;84;21157;-70
2021/11/04 05:37:17;;;;;;;27.17;16.15;;;;;;;3.50;100.00;100633.19;1665700;84;21546;-68
2021/11/04 05:39:44;;;;;;;28.35;16.02;;;;;;;3.48;100.00;100638.83;1671586;84;21089;-71
2021/11/04 05:42:11;;;;;;;27.98;16.00;;;;;;;3.48;100.00;100641.44;1678789;84;21092;-70
2021/11/04 05:44:38;;;;;;;27.80;16.95;;;;;;;3.45;100.00;100651.86;1684348;84;21165;-69
2021/11/04 05:47:06;;;;;;;25.88;15.65;;;;;;;3.45;100.00;100644.05;1672625;84;21074;-71
2021/11/04 05:49:33;;;;;;;25.30;17.02;;;;;;;3.45;100.00;100644.05;1690404;84;21539;-69
2021/11/04 05:52:01;;;;;;;26.73;16.23;;;;;;;3.47;100.00;100643.59;1689862;84;21587;-70
2021/11/04 05:54:28;;;;;;;29.35;16.90;;;;;;;3.47;100.00;100635.77;1713394;83;21072;-70
2021/11/04 05:56:55;;;;;;;25.52;14.45;;;;;;;3.48;100.00;100650.55;1710906;83;21079;-69
2021/11/04 05:59:21;;;;;;;29.63;17.37;;;;;;;3.45;100.00;100649.25;1697605;83;21593;-70
2021/11/04 06:01:48;;;;;;;28.05;17.00;;;;;;;3.42;100.00;100650.98;1710854;83;21542;-70
2021/11/04 06:04:15;;;;;;;26.70;16.48;;;;;;;3.42;100.00;100653.14;1703030;83;21126;-71
2021/11/04 06:06:41;;;;;;;30.85;15.10;;;;;;;3.43;100.00;100658.80;1703447;83;21084;-71
2021/11/04 06:09:08;;;;;;;25.43;15.08;;;;;;;3.44;100.00;100666.17;1677961;84;21143;-71
2021/11/04 06:11:36;;;;;;;23.85;15.48;;;;;;;3.43;100.00;100665.31;1678827;84;21519;-70
2021/11/04 06:14:02;;;;;;;26.35;16.17;;;;;;;3.43;100.00;100672.23;1690531;84;21117;-70
2021/11/04 06:16:31;;;;;;;24.05;14.93;;;;;;;3.39;100.00;100676.58;1681916;84;21120;-71
2021/11/04 06:18:57;;;;;;;23.80;14.03;;;;;;;3.39;100.00;100685.69;1671975;84;21125;-70
2021/11/04 06:21:24;;;;;;;29.48;16.95;;;;;;;3.39;100.00;100686.99;1687759;84;21082;-71
2021/11/04 06:23:51;;;;;;;23.87;14.95;;;;;;;3.43;100.00;100691.34;1705112;83;21649;-71
2021/11/04 06:26:19;;;;;;;36.65;18.07;;;;;;;3.42;100.00;100694.80;1699806;83;21083;-70
2021/11/04 06:28:46;;;;;;;35.70;17.12;;;;;;;3.37;100.00;100696.53;1700994;83;21076;-70
2021/11/04 06:31:12;;;;;;;25.10;16.32;;;;;;;3.35;100.00;100709.98;1673768;84;21534;-70
2021/11/04 06:33:39;;;;;;;30.30;16.32;;;;;;;3.32;100.00;100713.89;1678634;84;22357;-71
2021/11/04 06:36:05;;;;;;;19.35;12.50;;;;;;;3.32;100.00;100716.05;1690688;84;21242;-70
2021/11/04 06:38:32;;;;;;;20.12;13.70;;;;;;;3.29;100.00;100715.16;1678669;84;21115;-72
2021/11/04 06:40:58;;;;;;;20.90;13.30;;;;;;;3.28;100.00;100716.05;1679085;83;21143;-71
2021/11/04 06:43:25;;;;;;;20.65;13.00;;;;;;;3.29;100.00;100720.38;1690040;84;21009;-70
2021/11/04 06:45:52;;;;;;;23.05;13.80;;;;;;;3.33;100.00;100726.03;1683860;84;21694;-71
2021/11/04 06:48:35;;;;;;;22.30;12.50;;;;;;;3.39;100.00;100727.35;1656066;85;21435;-70
2021/11/04 06:51:02;;;;;;;23.87;13.78;;;;;;;3.43;100.00;100723.89;1718004;83;21145;-71
2021/11/04 06:53:29;;;;;;;21.50;13.90;;;;;;;3.49;100.00;100722.58;1680787;85;21052;-70
2021/11/04 06:55:57;;;;;;;19.60;12.10;;;;;;;3.61;100.00;100720.86;1718189;83;22218;-71
2021/11/04 06:58:28;;;;;;;18.70;12.05;;;;;;;3.66;100.00;100721.73;1674650;85;21158;-72
2021/11/04 07:00:55;;;;;;;24.40;15.38;;;;;;;3.77;100.00;100720.00;1738301;82;21198;-71
2021/11/04 07:03:27;;;;;;;20.40;13.15;;;;;;;3.87;100.00;100716.55;1747452;82;21144;-70
2021/11/04 07:06:00;;;;;;;19.77;14.07;;;;;;;3.94;100.00;100709.59;1746370;80;21077;-70
2021/11/04 07:08:24;;;;;;;19.02;11.97;;;;;;;4.02;100.00;100707.83;1750074;80;21068;-71
2021/11/04 07:11:00;;;;;;;23.85;13.88;;;;;;;4.07;100.00;100696.98;1746528;80;21118;-71
2021/11/04 07:13:30;;;;;;;25.92;15.28;;;;;;;4.13;100.00;100696.96;1731948;82;21177;-71
2021/11/04 07:15:58;;;;;;;22.48;14.13;;;;;;;4.17;100.00;100695.23;1725112;82;21139;-70
2021/11/04 07:18:25;;;;;;;21.12;13.60;;;;;;;4.20;100.00;100689.55;1726778;82;21721;-71
2021/11/04 07:21:03;;;;;;;19.37;13.25;;;;;;;4.25;100.00;100692.16;1746966;80;21107;-70
2021/11/04 07:23:40;;;;;;;24.43;15.58;;;;;;;4.32;100.00;100688.66;1740528;80;21443;-72
2021/11/04 07:26:08;;;;;;;25.75;16.48;;;;;;;4.43;100.00;100692.99;1729703;82;21065;-71
2021/11/04 07:28:38;;;;;;;26.12;15.30;;;;;;;4.50;100.00;100669.93;1719112;82;21160;-72
2021/11/04 07:31:11;;;;;;;20.25;11.73;;;;;;;4.61;100.00;100677.28;1717970;82;21109;-70
2021/11/04 07:33:43;;;;;;;26.15;15.28;;;;;;;4.71;100.00;100667.67;1723761;82;21108;-71
2021/11/04 07:36:10;;;;;;;20.88;14.03;;;;;;;4.78;100.00;100665.02;1733224;82;21522;-71
2021/11/04 07:38:38;;;;;;;32.08;18.12;;;;;;;4.82;100.00;100669.34;1730215;82;21148;-71
2021/11/04 07:41:06;;;;;;;29.70;16.40;;;;;;;4.92;100.00;100658.86;1679301;83;21958;-71
2021/11/04 07:43:34;;;;;;;31.90;17.35;;;;;;;5.01;100.00;100654.89;1703362;83;21097;-71
2021/11/04 07:46:02;;;;;;;29.82;18.60;;;;;;;5.04;100.00;100636.63;1726462;82;21643;-73
2021/11/04 07:48:28;;;;;;;29.20;18.92;;;;;;;5.08;100.00;100640.92;1684167;83;21132;-72
2021/11/04 07:50:55;;;;;;;34.18;19.92;;;;;;;5.13;100.00;100639.17;1680632;84;21095;-72
2021/11/04 07:53:21;;;;;;;33.10;19.73;;;;;;;5.17;100.00;100640.86;1696340;83;21142;-70
2021/11/04 07:55:50;;;;;;;32.28;19.73;;;;;;;5.23;100.00;100641.28;1702172;83;21111;-73
2021/11/04 07:58:17;;;;;;;33.55;20.23;;;;;;;5.29;100.00;100645.58;1653654;84;21133;-71
2021/11/04 08:00:43;;;;;;;40.55;23.40;;;;;;;5.33;100.00;100635.55;1688938;84;22088;-71
2021/11/04 08:03:10;;;;;;;30.08;18.87;;;;;;;5.43;100.00;100642.45;1677070;84;21146;-72
2021/11/04 08:05:37;;;;;;;33.28;21.48;;;;;;;5.55;100.00;100642.34;1704006;83;21118;-70
2021/11/04 08:08:06;;;;;;;33.10;21.20;;;;;;;5.65;100.00;100645.29;1703851;83;21535;-71
2021/11/04 08:10:32;;;;;;;33.85;20.52;;;;;;;5.74;100.00;100640.87;1687826;84;21043;-71
2021/11/04 08:13:06;;;;;;;37.17;22.87;;;;;;;5.79;100.00;100640.39;1677939;84;21124;-71
2021/11/04 08:15:27;;;;;;;37.93;20.75;;;;;;;5.90;100.00;100635.92;1702379;83;21005;-71
2021/11/04 08:17:54;;;;;;;35.38;21.70;;;;;;;5.96;100.00;100633.30;1705555;83;21100;-73
2021/11/04 08:20:20;;;;;;;37.58;22.65;;;;;;;6.02;100.00;100635.83;1689751;84;21165;-71
2021/11/04 08:22:47;;;;;;;38.30;24.82;;;;;;;6.15;100.00;100648.80;1696435;83;21085;-74
2021/11/04 08:25:14;;;;;;;48.28;30.32;;;;;;;6.26;100.00;100649.55;1695348;83;21067;-74
2021/11/04 08:27:41;;;;;;;44.23;26.73;;;;;;;6.36;100.00;100644.63;1677934;84;21618;-73
2021/11/04 08:30:14;;;;;;;41.13;25.77;;;;;;;6.46;100.00;100643.61;1698487;83;21854;-73
2021/11/04 08:32:39;;;;;;;48.25;28.83;;;;;;;6.60;100.00;100637.36;1714726;83;21117;-74
2021/11/04 08:35:07;;;;;;;33.08;20.40;;;;;;;6.72;100.00;100645.07;1681447;84;22178;-73
2021/11/04 08:37:35;;;;;;;44.73;29.20;;;;;;;6.81;100.00;100646.26;1695484;83;21099;-72
2021/11/04 08:40:04;;;;;;;38.53;20.77;;;;;;;6.94;100.00;100645.62;1689814;84;21609;-74
2021/11/04 08:42:32;;;;;;;41.40;23.20;;;;;;;7.02;100.00;100644.23;1672874;84;21097;-73
2021/11/04 08:44:59;;;;;;;32.25;21.93;;;;;;;7.11;100.00;100643.66;1681138;84;22165;-74
2021/11/04 08:47:29;;;;;;;35.88;23.73;;;;;;;7.22;100.00;100630.83;1662540;85;21496;-75
2021/11/04 08:49:57;;;;;;;39.27;24.60;;;;;;;7.24;100.00;100632.98;1654958;85;21703;-74
2021/11/04 08:52:23;;;;;;;38.92;24.43;;;;;;;7.26;100.00;100616.34;1670462;85;21062;-75
2021/11/04 08:54:50;;;;;;;35.58;23.10;;;;;;;7.33;100.00;100615.36;1681929;85;22096;-74
2021/11/04 08:57:17;;;;;;;44.63;25.60;;;;;;;7.41;100.00;100609.13;1666169;85;21048;-74
2021/11/04 08:59:44;;;;;;;39.98;24.43;;;;;;;7.53;100.00;100613.73;1653659;85;21159;-75
2021/11/04 09:02:14;;;;;;;45.90;24.63;;;;;;;7.60;100.00;100619.73;1653665;85;21652;-74
2021/11/04 09:04:45;;;;;;;41.73;25.45;;;;;;;7.71;100.00;100608.62;1659953;85;21081;-76
2021/11/04 09:07:18;;;;;;;36.45;22.48;;;;;;;7.81;100.00;100599.28;1684942;83;21844;-75
2021/11/04 09:09:47;;;;;;;41.55;25.65;;;;;;;7.91;100.00;100599.52;1678958;85;21699;-74
2021/11/04 09:12:15;;;;;;;38.85;22.58;;;;;;;8.02;100.00;100605.43;1641599;86;21053;-75
2021/11/04 09:14:44;;;;;;;39.65;25.92;;;;;;;8.13;100.00;100606.09;1675025;85;21026;-74
2021/11/04 09:17:12;;;;;;;46.37;25.40;;;;;;;8.31;100.00;100609.27;1654020;85;21155;-75
2021/11/04 09:19:40;;;;;;;37.58;23.85;;;;;;;8.42;100.00;100598.56;1685203;84;21818;-75
2021/11/04 09:22:08;;;;;;;37.35;22.65;;;;;;;8.49;100.00;100598.42;1681097;84;21768;-76
2021/11/04 09:24:34;;;;;;;42.03;26.27;;;;;;;8.58;100.00;100605.22;1695288;84;21544;-74
2021/11/04 09:27:04;;;;;;;38.78;24.72;;;;;;;8.68;100.00;100596.72;1680067;84;21057;-73
2021/11/04 09:29:32;;;;;;;37.13;23.95;;;;;;;8.71;100.00;100603.20;1675979;84;21108;-77
2021/11/04 09:31:59;;;;;;;39.65;25.30;;;;;;;8.76;100.00;100594.77;1673712;84;21122;-75
2021/11/04 09:34:27;;;;;;;39.10;25.37;;;;;;;8.86;100.00;100592.38;1686090;84;21093;-75
2021/11/04 09:36:54;;;;;;;41.35;26.75;;;;;;;8.98;100.00;100601.73;1680438;85;21108;-76
2021/11/04 09:39:20;;;;;;;40.98;25.65;;;;;;;9.06;100.00;100605.02;1675283;84;21085;-73
2021/11/04 09:41:46;;;;;;;54.70;31.93;;;;;;;9.36;100.00;100608.72;1652563;85;21643;-74
2021/11/04 09:44:13;;;;;;;50.63;30.90;;;;;;;9.66;100.00;100596.56;1667823;85;21171;-73
2021/11/04 09:46:40;;;;;;;64.82;36.45;;;;;;;9.91;100.00;100589.78;1685215;84;21072;-73
2021/11/04 09:49:06;;;;;;;53.50;30.50;;;;;;;10.14;100.00;100591.78;1691534;83;21080;-72
2021/11/04 09:51:33;;;;;;;37.75;24.35;;;;;;;10.35;100.00;100584.61;1683233;83;21124;-75
2021/11/04 09:54:00;;;;;;;41.00;26.37;;;;;;;10.64;100.00;100586.86;1730152;82;21567;-73
2021/11/04 09:56:26;;;;;;;42.38;27.22;;;;;;;11.12;100.00;100592.38;1731607;80;21567;-75
2021/11/04 09:58:53;;;;;;;41.70;28.85;;;;;;;11.58;100.00;100570.23;1730659;80;21549;-75
2021/11/04 10:01:27;;;;;;;41.77;27.52;;;;;;;11.78;100.00;100576.16;1731924;82;21064;-74
2021/11/04 10:03:59;;;;;;;40.65;26.30;;;;;;;11.93;100.00;100582.69;1724900;82;21073;-75
2021/11/04 10:06:31;;;;;;;38.15;26.42;;;;;;;12.03;100.00;100577.50;1728175;82;21082;-74
2021/11/04 10:09:08;;;;;;;45.52;29.10;;;;;;;11.88;100.00;100579.36;1728436;82;22019;-73
2021/11/04 10:11:42;;;;;;;39.13;25.70;;;;;;;11.92;100.00;100567.31;1662874;85;21101;-74
2021/11/04 10:14:13;;;;;;;39.18;25.08;;;;;;;12.13;100.00;100568.78;1725425;82;21027;-75
2021/11/04 10:16:43;;;;;;;39.95;25.37;;;;;;;12.39;100.00;100575.27;1726033;82;21102;-73
2021/11/04 10:19:14;;;;;;;40.00;26.27;;;;;;;12.66;100.00;100567.22;1732344;82;21081;-74
2021/11/04 10:21:50;;;;;;;44.63;28.62;;;;;;;12.73;100.00;100571.34;1722976;82;21502;-74
2021/11/04 10:24:23;;;;;;;38.95;26.90;;;;;;;12.70;100.00;100554.73;1728662;82;22450;-75
2021/11/04 10:26:55;;;;;;;45.93;26.60;;;;;;;12.60;100.00;100547.63;1733674;81;21059;-74
2021/11/04 10:29:25;;;;;;;44.15;29.20;;;;;;;12.54;100.00;100534.69;1726605;82;21066;-75
2021/11/04 10:31:57;;;;;;;39.30;26.33;;;;;;;12.47;100.00;100541.09;1727330;82;21050;-74
2021/11/04 10:34:33;;;;;;;43.50;28.98;;;;;;;12.42;100.00;100537.30;1718509;80;21878;-73
2021/11/04 10:37:20;;;;;;;40.17;26.10;;;;;;;12.44;100.00;100534.16;1729374;80;21706;-77
2021/11/04 10:39:51;;;;;;;45.65;28.85;;;;;;;12.50;100.00;100538.36;1719134;82;21061;-75
2021/11/04 10:42:17;;;;;;;;;;;;;;;12.38;100.00;100537.90;1672396;85;21082;-77
2021/11/04 10:44:45;;;;;;;44.30;27.42;;;;;;;12.25;100.00;100529.18;1673331;85;20234;-75
2021/11/04 10:47:24;;;;;;;41.00;28.20;;;;;;;12.25;100.00;100533.99;1725058;82;21134;-75
2021/11/04 10:49:50;;;;;;;44.53;30.10;;;;;;;12.32;100.00;100541.23;1727618;82;21101;-76
2021/11/04 10:52:23;;;;;;;42.03;28.98;;;;;;;12.44;100.00;100530.66;1735973;82;21052;-77
2021/11/04 10:54:51;;;;;;;39.15;26.93;;;;;;;12.51;100.00;100535.63;1734724;82;21161;-76
2021/11/04 10:57:40;;;;;;;41.30;28.85;;;;;;;12.43;100.00;100536.88;1712894;82;36751;-77
2021/11/04 11:00:22;;;;;;;39.30;25.27;;;;;;;12.27;100.00;100524.23;1715268;83;22121;-76
2021/11/04 11:03:08;;;;;;;42.90;27.80;;;;;;;12.27;100.00;100520.27;1710571;83;21066;-76
2021/11/04 11:05:36;;;;;;;38.28;24.18;;;;;;;12.25;100.00;100515.51;1699412;83;21130;-75
2021/11/04 11:08:05;;;;;;;35.17;25.12;;;;;;;12.22;100.00;100519.59;1711609;82;21980;-74
2021/11/04 11:10:33;;;;;;;43.33;26.12;;;;;;;12.15;100.00;100508.86;1720900;82;21297;-74
2021/11/04 11:13:00;;;;;;;42.93;26.40;;;;;;;12.09;100.00;100505.13;1710618;83;21115;-77
2021/11/04 11:15:27;;;;;;;40.78;27.15;;;;;;;12.12;100.00;100501.04;1706132;83;21589;-74